Mc Clellandtown, Pennsylvania
Current Conditions -  °F | °C
As of 12:53 AM on Saturday 01 Nov 2014 (Local Time) from KMGW Reporting Station
Light Rain Light Rain  
Wind Chill: 43°   Ceiling: 1600
Heat Index: 43°   Visibility: 6mi
Dew Point: 38°   Wind: 3mph
Humidity: 82%   Direction: 10°N
Pressure: 29.86"   Gusts: NA
Location:  39.8879°N, 79.8634°W
Report Text: KMGW 010453Z AUTO 01003KT 6SM -RA FEW006 BKN016 OVC022 06/03 A2986 RMK AO2 SLP115 P0002 T00610033 401060056 TSNO
Loading
Personal Weather Stations






























Interactive Weather Map
Tropical Storm Tracking
New forecast layout! Learn more

10-Day Weather Forecast

Advertisements
Track Severe Weather on mobile